createdAt,value
2018-12-05T00:02:17.338Z,5.00
2018-12-05T00:04:44.820Z,5.00
2018-12-05T00:07:12.261Z,5.00
2018-12-05T00:09:39.743Z,5.10
2018-12-05T00:12:07.278Z,5.10
2018-12-05T00:14:34.750Z,5.10
2018-12-05T00:17:02.269Z,5.10
2018-12-05T00:19:29.776Z,5.10
2018-12-05T00:21:57.223Z,5.10
2018-12-05T00:24:24.763Z,5.20
2018-12-05T00:26:52.273Z,5.20
2018-12-05T00:29:19.779Z,5.20
2018-12-05T00:31:47.286Z,5.20
2018-12-05T00:34:14.749Z,5.20
2018-12-05T00:36:42.185Z,5.20
2018-12-05T00:39:09.668Z,5.20
2018-12-05T00:41:37.108Z,5.20
2018-12-05T00:44:04.683Z,5.20
2018-12-05T00:46:32.614Z,5.30
2018-12-05T00:49:00.108Z,5.30
2018-12-05T00:51:27.571Z,5.30
2018-12-05T00:53:55.075Z,5.30
2018-12-05T00:56:22.681Z,5.30
2018-12-05T00:58:50.177Z,5.30
2018-12-05T01:01:17.689Z,5.30
2018-12-05T01:03:45.178Z,5.30
2018-12-05T01:06:12.643Z,5.30
2018-12-05T01:08:40.083Z,5.30
2018-12-05T01:11:07.549Z,5.30
2018-12-05T01:13:35.016Z,5.40
2018-12-05T01:16:02.529Z,5.40
2018-12-05T01:18:29.966Z,5.40
2018-12-05T01:20:57.552Z,5.30
2018-12-05T01:23:25.037Z,5.30
2018-12-05T01:25:52.511Z,5.30
2018-12-05T01:28:19.977Z,5.30
2018-12-05T01:30:47.413Z,5.30
2018-12-05T01:33:16.347Z,5.30
2018-12-05T01:35:44.030Z,5.30
2018-12-05T01:38:11.494Z,5.20
2018-12-05T01:40:38.936Z,5.20
2018-12-05T01:43:06.403Z,5.20
2018-12-05T01:45:33.839Z,5.20
2018-12-05T01:48:01.319Z,5.20
2018-12-05T01:50:28.742Z,5.20
2018-12-05T01:52:56.331Z,5.20
2018-12-05T01:55:23.746Z,5.10
2018-12-05T01:57:51.210Z,5.10
2018-12-05T02:00:18.718Z,5.10
2018-12-05T02:02:46.185Z,5.10
2018-12-05T02:05:13.711Z,5.10
2018-12-05T02:07:41.166Z,5.10
2018-12-05T02:10:08.688Z,5.10
2018-12-05T02:12:36.162Z,5.00
2018-12-05T02:15:04.232Z,5.00
2018-12-05T02:17:31.701Z,5.00
2018-12-05T02:19:59.138Z,5.00
2018-12-05T02:22:26.607Z,5.00
2018-12-05T02:24:54.064Z,5.00
2018-12-05T02:27:21.666Z,5.00
2018-12-05T02:29:54.998Z,5.00
2018-12-05T02:32:22.569Z,5.00
2018-12-05T02:34:50.001Z,5.00
2018-12-05T02:37:17.533Z,5.00
2018-12-05T02:39:45.344Z,5.00
2018-12-05T02:42:12.785Z,5.00
2018-12-05T02:44:40.258Z,5.00
2018-12-05T02:47:07.782Z,5.00
2018-12-05T02:49:35.428Z,5.00
2018-12-05T02:52:02.931Z,5.00
2018-12-05T02:54:30.379Z,5.00
2018-12-05T02:56:58.065Z,5.00
2018-12-05T02:59:25.566Z,5.00
2018-12-05T03:01:53.226Z,4.90
2018-12-05T03:04:20.861Z,4.90
2018-12-05T03:06:48.495Z,4.90
2018-12-05T03:09:16.054Z,4.90
2018-12-05T03:11:43.685Z,4.80
2018-12-05T03:14:11.256Z,4.80
2018-12-05T03:16:38.823Z,4.80
2018-12-05T03:19:06.330Z,4.70
2018-12-05T03:21:33.923Z,4.70
2018-12-05T03:24:01.543Z,4.70
2018-12-05T03:26:29.044Z,4.70
2018-12-05T03:28:56.470Z,4.70
2018-12-05T03:31:23.942Z,4.70
2018-12-05T03:33:51.683Z,4.60
2018-12-05T03:36:19.199Z,4.60
2018-12-05T03:38:46.642Z,4.60
2018-12-05T03:41:14.150Z,4.60
2018-12-05T03:43:41.590Z,4.60
2018-12-05T03:46:09.202Z,4.60
2018-12-05T03:48:36.625Z,4.60
2018-12-05T03:51:04.097Z,4.60
2018-12-05T03:53:31.554Z,4.60
2018-12-05T03:55:59.174Z,4.60
2018-12-05T03:58:26.613Z,4.60
2018-12-05T04:00:54.072Z,4.60
2018-12-05T04:05:55.639Z,4.60
2018-12-05T04:08:23.101Z,4.50
2018-12-05T04:10:50.565Z,4.50
2018-12-05T04:13:18.012Z,4.50
2018-12-05T04:15:45.481Z,4.50
2018-12-05T04:18:13.043Z,4.50
2018-12-05T04:20:40.691Z,4.50
2018-12-05T04:23:08.131Z,4.40
2018-12-05T04:25:35.575Z,4.40
2018-12-05T04:28:03.039Z,4.40
2018-12-05T04:30:30.535Z,4.40
2018-12-05T04:32:58.006Z,4.30
2018-12-05T04:35:25.666Z,4.30
2018-12-05T04:37:53.157Z,4.30
2018-12-05T04:40:20.586Z,4.30
2018-12-05T04:42:48.059Z,4.40
2018-12-05T04:45:15.508Z,4.40
2018-12-05T04:47:43.053Z,4.40
2018-12-05T04:50:10.499Z,4.40
2018-12-05T04:52:38.041Z,4.40
2018-12-05T04:55:05.626Z,4.30
2018-12-05T04:57:33.082Z,4.30
2018-12-05T05:00:00.517Z,4.30
2018-12-05T05:02:27.978Z,4.20
2018-12-05T05:04:55.416Z,4.20
2018-12-05T05:07:22.883Z,4.20
2018-12-05T05:09:50.314Z,4.20
2018-12-05T05:12:17.795Z,4.20
2018-12-05T05:14:45.236Z,4.20
2018-12-05T05:17:12.748Z,4.20
2018-12-05T05:19:40.265Z,4.10
2018-12-05T05:22:07.759Z,4.10
2018-12-05T05:24:35.210Z,4.10
2018-12-05T05:27:02.674Z,4.10
2018-12-05T05:29:30.180Z,4.10
2018-12-05T05:31:57.707Z,4.10
2018-12-05T05:34:25.227Z,4.10
2018-12-05T05:36:52.760Z,4.10
2018-12-05T05:39:20.192Z,4.10
2018-12-05T05:41:47.646Z,4.10
2018-12-05T05:44:15.090Z,4.00
2018-12-05T05:46:42.587Z,4.00
2018-12-05T05:49:10.037Z,4.00
2018-12-05T05:51:37.876Z,4.00
2018-12-05T05:54:05.385Z,4.00
2018-12-05T05:56:32.833Z,3.90
2018-12-05T05:59:00.280Z,3.90
2018-12-05T06:01:27.713Z,3.90
2018-12-05T06:03:55.216Z,3.90
2018-12-05T06:06:22.677Z,3.90
2018-12-05T06:08:50.142Z,3.90
2018-12-05T06:11:17.574Z,3.90
2018-12-05T06:13:45.123Z,3.90
2018-12-05T06:16:12.571Z,3.90
2018-12-05T06:18:40.030Z,3.90
2018-12-05T06:21:07.518Z,3.90
2018-12-05T06:23:34.969Z,3.90
2018-12-05T06:26:02.401Z,3.90
2018-12-05T06:28:29.870Z,3.90
2018-12-05T06:30:57.310Z,3.90
2018-12-05T06:33:24.780Z,3.90
2018-12-05T06:35:52.229Z,3.90
2018-12-05T06:38:19.694Z,3.90
2018-12-05T06:40:47.129Z,3.90
2018-12-05T06:43:14.593Z,3.90
2018-12-05T06:45:42.081Z,3.90
2018-12-05T06:48:09.536Z,3.90
2018-12-05T06:50:36.970Z,3.90
2018-12-05T06:53:04.433Z,3.90
2018-12-05T06:55:38.941Z,3.90
2018-12-05T06:58:01.343Z,3.90
2018-12-05T07:00:28.783Z,3.90
2018-12-05T07:02:56.501Z,3.90
2018-12-05T07:05:23.933Z,3.90
2018-12-05T07:07:51.484Z,3.90
2018-12-05T07:10:19.579Z,3.90
2018-12-05T07:12:47.232Z,3.90
2018-12-05T07:15:14.680Z,3.90
2018-12-05T07:17:42.397Z,3.90
2018-12-05T07:20:09.875Z,3.90
2018-12-05T07:22:37.308Z,3.90
2018-12-05T07:25:04.910Z,3.90
2018-12-05T07:27:32.345Z,3.90
2018-12-05T07:29:59.807Z,3.90
2018-12-05T07:32:27.247Z,4.00
2018-12-05T07:34:54.710Z,3.90
2018-12-05T07:37:22.145Z,4.00
2018-12-05T07:39:49.605Z,4.00
2018-12-05T07:42:17.041Z,4.00
2018-12-05T07:44:44.581Z,4.00
2018-12-05T07:47:12.008Z,4.00
2018-12-05T07:49:39.478Z,4.00
2018-12-05T07:52:06.913Z,4.00
2018-12-05T07:54:34.381Z,4.00
2018-12-05T07:57:01.828Z,4.00
2018-12-05T07:59:29.434Z,4.00
2018-12-05T08:01:56.867Z,4.00
2018-12-05T08:04:24.474Z,4.00
2018-12-05T08:06:51.919Z,4.00
2018-12-05T08:09:19.562Z,4.10
2018-12-05T08:11:47.017Z,4.00
2018-12-05T08:14:14.582Z,4.10
2018-12-05T08:16:42.105Z,4.10
2018-12-05T08:19:09.574Z,4.10
2018-12-05T08:21:37.050Z,4.20
2018-12-05T08:24:04.481Z,4.10
2018-12-05T08:26:31.962Z,4.20
2018-12-05T08:28:59.400Z,4.30
2018-12-05T08:31:26.877Z,4.30
2018-12-05T08:33:54.322Z,4.30
2018-12-05T08:36:21.778Z,4.30
2018-12-05T08:38:49.218Z,4.40
2018-12-05T08:41:16.681Z,4.40
2018-12-05T08:43:44.667Z,4.50
2018-12-05T08:46:12.351Z,4.50
2018-12-05T08:48:39.788Z,4.60
2018-12-05T08:51:07.251Z,4.60
2018-12-05T08:53:34.701Z,4.60
2018-12-05T08:56:02.166Z,4.70
2018-12-05T08:58:29.610Z,4.70
2018-12-05T09:00:57.091Z,4.80
2018-12-05T09:03:24.533Z,4.80
2018-12-05T09:05:52.001Z,4.80
2018-12-05T09:08:19.645Z,4.80
2018-12-05T09:10:47.209Z,4.90
2018-12-05T09:13:14.644Z,4.90
2018-12-05T09:15:42.237Z,5.00
2018-12-05T09:18:09.677Z,5.00
2018-12-05T09:20:37.144Z,5.10
2018-12-05T09:23:04.691Z,5.10
2018-12-05T09:25:32.156Z,5.10
2018-12-05T09:27:59.595Z,5.20
2018-12-05T09:30:27.058Z,5.20
2018-12-05T09:32:54.519Z,5.20
2018-12-05T09:35:22.204Z,5.30
2018-12-05T09:37:49.653Z,5.30
2018-12-05T09:40:17.092Z,5.40
2018-12-05T09:42:44.546Z,5.40
2018-12-05T09:45:12.348Z,5.50
2018-12-05T09:47:39.825Z,5.50
2018-12-05T09:50:07.731Z,5.60
2018-12-05T09:52:35.190Z,5.60
2018-12-05T09:55:02.686Z,5.70
2018-12-05T09:57:30.342Z,5.70
2018-12-05T09:59:57.770Z,5.70
2018-12-05T10:02:25.234Z,5.80
2018-12-05T10:04:52.675Z,5.80
2018-12-05T10:07:20.240Z,5.90
2018-12-05T10:09:47.680Z,6.00
2018-12-05T10:12:15.250Z,6.00
2018-12-05T10:14:42.686Z,6.10
2018-12-05T10:17:10.165Z,6.10
2018-12-05T10:19:37.610Z,6.20
2018-12-05T10:22:05.073Z,6.20
2018-12-05T10:24:32.519Z,6.20
2018-12-05T10:26:59.979Z,6.30
2018-12-05T10:29:27.479Z,6.30
2018-12-05T10:31:54.944Z,6.30
2018-12-05T10:34:22.386Z,6.40
2018-12-05T10:36:49.859Z,6.40
2018-12-05T10:39:18.440Z,6.40
2018-12-05T10:41:45.901Z,6.50
2018-12-05T10:44:13.348Z,6.50
2018-12-05T10:46:40.809Z,6.50
2018-12-05T10:49:08.259Z,6.60
2018-12-05T10:51:35.914Z,6.60
2018-12-05T10:54:03.422Z,6.60
2018-12-05T10:56:30.865Z,6.70
2018-12-05T10:58:58.324Z,6.70
2018-12-05T11:01:31.573Z,6.70
2018-12-05T11:04:00.978Z,6.80
2018-12-05T11:06:34.336Z,6.90
2018-12-05T11:09:07.417Z,7.00
2018-12-05T11:11:40.733Z,7.00
2018-12-05T11:14:14.034Z,7.10
2018-12-05T11:16:46.394Z,7.10
2018-12-05T11:19:19.496Z,7.10
2018-12-05T11:21:53.017Z,7.20
2018-12-05T11:24:26.507Z,7.30
2018-12-05T11:26:53.992Z,7.30
2018-12-05T11:29:21.453Z,7.30
2018-12-05T11:31:48.966Z,7.40
2018-12-05T11:34:16.437Z,7.50
2018-12-05T11:36:43.954Z,7.50
2018-12-05T11:39:11.402Z,7.60
2018-12-05T11:41:38.847Z,7.70
2018-12-05T11:44:06.374Z,7.70
2018-12-05T11:46:33.862Z,7.80
2018-12-05T11:49:01.437Z,7.80
2018-12-05T11:51:28.883Z,7.80
2018-12-05T11:53:57.265Z,7.90
2018-12-05T11:56:24.769Z,8.00
2018-12-05T11:58:52.235Z,8.00
2018-12-05T12:01:19.674Z,8.10
2018-12-05T12:03:47.135Z,8.10
2018-12-05T12:06:14.573Z,8.10
2018-12-05T12:08:42.034Z,8.20
2018-12-05T12:11:09.645Z,8.20
2018-12-05T12:13:37.121Z,8.20
2018-12-05T12:16:04.578Z,8.20
2018-12-05T12:18:32.042Z,8.20
2018-12-05T12:20:59.548Z,8.30
2018-12-05T12:23:27.017Z,8.30
2018-12-05T12:25:54.581Z,8.30
2018-12-05T12:28:22.162Z,8.30
2018-12-05T12:30:49.613Z,8.30
2018-12-05T12:33:17.091Z,8.30
2018-12-05T12:35:44.525Z,8.30
2018-12-05T12:38:11.992Z,8.30
2018-12-05T12:40:39.430Z,8.30
2018-12-05T12:43:06.992Z,8.40
2018-12-05T12:45:34.444Z,8.40
2018-12-05T12:48:02.037Z,8.40
2018-12-05T12:50:29.502Z,8.40
2018-12-05T12:52:57.874Z,8.40
2018-12-05T12:55:25.374Z,8.40
2018-12-05T12:57:52.843Z,8.40
2018-12-05T13:00:20.468Z,8.40
2018-12-05T13:02:47.900Z,8.40
2018-12-05T13:05:15.563Z,8.50
2018-12-05T13:07:43.006Z,8.50
2018-12-05T13:10:10.514Z,8.50
2018-12-05T13:12:37.960Z,8.60
2018-12-05T13:15:05.563Z,8.60
2018-12-05T13:17:33.049Z,8.60
2018-12-05T13:20:00.512Z,8.60
2018-12-05T13:22:27.959Z,8.70
2018-12-05T13:24:55.475Z,8.70
2018-12-05T13:27:22.953Z,8.70
2018-12-05T13:29:50.615Z,8.70
2018-12-05T13:32:18.123Z,8.70
2018-12-05T13:34:45.607Z,8.70
2018-12-05T13:37:13.074Z,8.70
2018-12-05T13:39:40.566Z,8.70
2018-12-05T13:42:08.118Z,8.70
2018-12-05T13:44:35.586Z,8.70
2018-12-05T13:47:03.050Z,8.70
2018-12-05T13:49:30.615Z,8.70
2018-12-05T13:51:58.086Z,8.70
2018-12-05T13:54:25.541Z,8.70
2018-12-05T13:56:53.016Z,8.80
2018-12-05T13:59:20.538Z,8.80
2018-12-05T14:01:48.012Z,8.80
2018-12-05T14:04:15.493Z,8.80
2018-12-05T14:06:42.930Z,8.70
2018-12-05T14:09:10.397Z,8.80
2018-12-05T14:11:37.857Z,8.80
2018-12-05T14:14:05.424Z,8.80
2018-12-05T14:16:32.882Z,8.80
2018-12-05T14:19:00.412Z,8.70
2018-12-05T14:21:27.891Z,8.70
2018-12-05T14:23:55.507Z,8.80
2018-12-05T14:26:22.942Z,8.70
2018-12-05T14:28:50.596Z,8.80
2018-12-05T14:31:18.113Z,8.80
2018-12-05T14:33:45.591Z,8.70
2018-12-05T14:36:13.045Z,8.70
2018-12-05T14:38:40.533Z,8.70
2018-12-05T14:41:08.053Z,8.70
2018-12-05T14:43:35.524Z,8.70
2018-12-05T14:46:02.968Z,8.70
2018-12-05T14:48:30.435Z,8.70
2018-12-05T14:50:57.883Z,8.70
2018-12-05T14:53:25.367Z,8.70
2018-12-05T14:55:52.826Z,8.70
2018-12-05T14:58:20.302Z,8.70
2018-12-05T15:00:47.758Z,8.70
2018-12-05T15:03:15.245Z,8.70
2018-12-05T15:05:42.705Z,8.60
2018-12-05T15:08:10.181Z,8.60
2018-12-05T15:10:37.640Z,8.60
2018-12-05T15:13:05.103Z,8.60
2018-12-05T15:15:32.625Z,8.60
2018-12-05T15:18:00.156Z,8.60
2018-12-05T15:20:27.624Z,8.60
2018-12-05T15:22:55.179Z,8.50
2018-12-05T15:25:22.621Z,8.50
2018-12-05T15:27:50.106Z,8.50
2018-12-05T15:30:17.627Z,8.50
2018-12-05T15:32:45.131Z,8.50
2018-12-05T15:35:12.658Z,8.50
2018-12-05T15:37:40.154Z,8.50
2018-12-05T15:40:07.752Z,8.50
2018-12-05T15:42:35.784Z,8.50
2018-12-05T15:45:04.359Z,8.50
2018-12-05T15:47:31.847Z,8.50
2018-12-05T15:49:59.450Z,8.50
2018-12-05T15:52:26.938Z,8.50
2018-12-05T15:54:54.426Z,8.50
2018-12-05T15:57:21.898Z,8.50
2018-12-05T15:59:49.392Z,8.50
2018-12-05T16:02:16.906Z,8.50
2018-12-05T16:04:44.341Z,8.50
2018-12-05T16:07:11.826Z,8.50
2018-12-05T16:09:39.607Z,8.50
2018-12-05T16:12:07.073Z,8.40
2018-12-05T16:14:34.560Z,8.40
2018-12-05T16:17:02.048Z,8.50
2018-12-05T16:19:29.534Z,8.40
2018-12-05T16:21:57.059Z,8.40
2018-12-05T16:24:24.521Z,8.40
2018-12-05T16:26:52.179Z,8.40
2018-12-05T16:29:19.652Z,8.40
2018-12-05T16:31:47.155Z,8.40
2018-12-05T16:34:14.626Z,8.40
2018-12-05T16:36:42.103Z,8.40
2018-12-05T16:39:09.559Z,8.40
2018-12-05T16:41:37.119Z,8.40
2018-12-05T16:44:04.574Z,8.50
2018-12-05T16:46:32.061Z,8.50
2018-12-05T16:48:59.522Z,8.50
2018-12-05T16:51:26.989Z,8.50
2018-12-05T16:53:54.494Z,8.50
2018-12-05T16:56:21.994Z,8.50
2018-12-05T16:58:49.534Z,8.50
2018-12-05T17:01:16.998Z,8.50
2018-12-05T17:03:44.536Z,8.50
2018-12-05T17:06:11.982Z,8.50
2018-12-05T17:08:39.473Z,8.50
2018-12-05T17:11:06.920Z,8.50
2018-12-05T17:13:36.382Z,8.50
2018-12-05T17:16:03.895Z,8.50
2018-12-05T17:18:31.379Z,8.50
2018-12-05T17:20:58.830Z,8.50
2018-12-05T17:23:26.337Z,8.50
2018-12-05T17:25:53.908Z,8.60
2018-12-05T17:28:21.387Z,8.60
2018-12-05T17:30:48.881Z,8.60
2018-12-05T17:33:16.369Z,8.60
2018-12-05T17:35:43.815Z,8.60
2018-12-05T17:38:11.524Z,8.60
2018-12-05T17:40:39.422Z,8.60
2018-12-05T17:43:06.891Z,8.60
2018-12-05T17:45:34.347Z,8.60
2018-12-05T17:48:01.828Z,8.60
2018-12-05T17:50:29.300Z,8.70
2018-12-05T17:52:56.804Z,8.70
2018-12-05T17:55:24.375Z,8.70
2018-12-05T17:57:51.860Z,8.70
2018-12-05T18:00:19.480Z,8.70
2018-12-05T18:02:46.957Z,8.70
2018-12-05T18:05:14.412Z,8.70
2018-12-05T18:07:41.915Z,8.70
2018-12-05T18:10:09.504Z,8.80
2018-12-05T18:12:36.989Z,8.80
2018-12-05T18:15:04.880Z,8.80
2018-12-05T18:17:32.313Z,8.80
2018-12-05T18:19:59.799Z,8.80
2018-12-05T18:22:27.377Z,8.80
2018-12-05T18:24:54.983Z,8.90
2018-12-05T18:27:22.469Z,8.90
2018-12-05T18:29:49.945Z,8.90
2018-12-05T18:32:17.387Z,8.90
2018-12-05T18:34:44.850Z,8.90
2018-12-05T18:37:12.347Z,8.90
2018-12-05T18:39:40.482Z,8.90
2018-12-05T18:42:08.103Z,8.90
2018-12-05T18:44:35.581Z,8.90
2018-12-05T18:47:03.061Z,8.90
2018-12-05T18:49:30.547Z,8.90
2018-12-05T18:51:57.969Z,9.00
2018-12-05T18:54:25.441Z,9.00
2018-12-05T18:56:52.868Z,9.00
2018-12-05T18:59:21.674Z,9.10
2018-12-05T19:01:49.194Z,9.10
2018-12-05T19:04:16.616Z,9.10
2018-12-05T19:06:44.205Z,9.10
2018-12-05T19:09:11.720Z,9.10
2018-12-05T19:11:39.196Z,9.10
2018-12-05T19:14:12.606Z,9.10
2018-12-05T19:16:40.094Z,9.10
2018-12-05T19:19:07.626Z,9.10
2018-12-05T19:21:35.104Z,9.10
2018-12-05T19:24:02.573Z,9.20
2018-12-05T19:26:30.094Z,9.20
2018-12-05T19:28:57.542Z,9.30
2018-12-05T19:31:25.150Z,9.30
2018-12-05T19:33:52.593Z,9.30
2018-12-05T19:36:20.094Z,9.40
2018-12-05T19:38:47.556Z,9.40
2018-12-05T19:41:15.042Z,9.50
2018-12-05T19:43:42.496Z,9.50
2018-12-05T19:46:10.059Z,9.50
2018-12-05T19:48:37.600Z,9.60
2018-12-05T19:51:05.159Z,9.60
2018-12-05T19:53:32.617Z,9.60
2018-12-05T19:56:00.074Z,9.60
2018-12-05T19:58:27.522Z,9.60
2018-12-05T20:00:54.965Z,9.60
2018-12-05T20:03:22.449Z,9.50
2018-12-05T20:05:49.994Z,9.50
2018-12-05T20:08:17.463Z,9.40
2018-12-05T20:10:44.919Z,9.40
2018-12-05T20:13:12.703Z,9.30
2018-12-05T20:15:40.397Z,9.40
2018-12-05T20:18:07.846Z,9.30
2018-12-05T20:20:35.339Z,9.30
2018-12-05T20:23:02.806Z,9.30
2018-12-05T20:25:30.297Z,9.20
2018-12-05T20:27:57.821Z,9.20
2018-12-05T20:30:25.273Z,9.20
2018-12-05T20:32:52.780Z,9.20
2018-12-05T20:35:20.288Z,9.20
2018-12-05T20:37:47.758Z,9.20
2018-12-05T20:40:15.229Z,9.20
2018-12-05T20:42:42.778Z,9.20
2018-12-05T20:45:10.210Z,9.20
2018-12-05T20:47:37.743Z,9.20
2018-12-05T20:50:05.838Z,9.20
2018-12-05T20:52:33.444Z,9.20
2018-12-05T20:55:00.964Z,9.30
2018-12-05T20:57:28.387Z,9.30
2018-12-05T20:59:57.515Z,9.30
2018-12-05T21:02:24.996Z,9.30
2018-12-05T21:04:52.861Z,9.30
2018-12-05T21:07:20.358Z,9.30
2018-12-05T21:09:47.817Z,9.30
2018-12-05T21:12:15.827Z,9.30
2018-12-05T21:14:43.299Z,9.30
2018-12-05T21:17:10.942Z,9.30
2018-12-05T21:19:39.589Z,9.30
2018-12-05T21:22:07.184Z,9.30
2018-12-05T21:24:34.991Z,9.30
2018-12-05T21:27:02.443Z,9.30
2018-12-05T21:29:31.839Z,9.30
2018-12-05T21:31:59.879Z,9.30
2018-12-05T21:34:27.479Z,9.30
2018-12-05T21:36:56.760Z,9.30
2018-12-05T21:39:24.283Z,9.30
2018-12-05T21:41:52.827Z,9.30
2018-12-05T21:44:20.389Z,9.40
2018-12-05T21:46:47.818Z,9.40
2018-12-05T21:49:15.302Z,9.40
2018-12-05T21:51:42.805Z,9.40
2018-12-05T21:54:11.295Z,9.40
2018-12-05T21:56:39.377Z,9.40
2018-12-05T21:59:07.081Z,9.40
2018-12-05T22:01:34.580Z,9.40
2018-12-05T22:04:02.054Z,9.40
2018-12-05T22:06:30.942Z,9.40
2018-12-05T22:08:58.610Z,9.40
2018-12-05T22:11:26.062Z,9.40
2018-12-05T22:13:53.531Z,9.40
2018-12-05T22:16:22.775Z,9.40
2018-12-05T22:18:50.411Z,9.40
2018-12-05T22:21:17.936Z,9.40
2018-12-05T22:23:45.473Z,9.40
2018-12-05T22:26:12.965Z,9.40
2018-12-05T22:28:40.591Z,9.40
2018-12-05T22:31:08.050Z,9.40
2018-12-05T22:33:37.477Z,9.40
2018-12-05T22:36:05.012Z,9.40
2018-12-05T22:38:32.476Z,9.40
2018-12-05T22:40:59.914Z,9.40
2018-12-05T22:43:27.546Z,9.50
2018-12-05T22:45:54.990Z,9.50
2018-12-05T22:48:22.480Z,9.50
2018-12-05T22:50:50.081Z,9.50
2018-12-05T22:53:17.560Z,9.50
2018-12-05T22:55:45.042Z,9.50
2018-12-05T22:58:12.506Z,9.50
2018-12-05T23:00:43.622Z,9.50
2018-12-05T23:03:11.122Z,9.50
2018-12-05T23:05:38.830Z,9.50
2018-12-05T23:08:06.265Z,9.50
2018-12-05T23:10:33.799Z,9.50
2018-12-05T23:13:01.574Z,9.50
2018-12-05T23:15:29.085Z,9.50
2018-12-05T23:17:56.594Z,9.50
2018-12-05T23:20:24.282Z,9.50
2018-12-05T23:22:51.746Z,9.60
2018-12-05T23:25:19.344Z,9.60
2018-12-05T23:27:46.778Z,9.60
2018-12-05T23:30:14.258Z,9.60
2018-12-05T23:32:41.812Z,9.60
2018-12-05T23:35:09.290Z,9.60
2018-12-05T23:37:36.721Z,9.60
2018-12-05T23:40:05.221Z,9.60
2018-12-05T23:42:32.681Z,9.60
2018-12-05T23:45:00.181Z,9.60
2018-12-05T23:47:27.625Z,9.60
2018-12-05T23:49:55.107Z,9.60
2018-12-05T23:52:22.611Z,9.60
2018-12-05T23:54:50.400Z,9.60
2018-12-05T23:57:17.898Z,9.60
2018-12-05T23:59:45.359Z,9.60
